sensor_id;sensor_type;location;lat;lon;timestamp;temperature;humidity
70051;SHT30;57391;51.306;22.680;2023-02-17T00:01:29;3.23;78.06
70051;SHT30;57391;51.306;22.680;2023-02-17T00:03:59;3.25;78.08
70051;SHT30;57391;51.306;22.680;2023-02-17T00:06:27;3.25;78.14
70051;SHT30;57391;51.306;22.680;2023-02-17T00:08:56;3.24;78.12
70051;SHT30;57391;51.306;22.680;2023-02-17T00:11:23;3.24;78.13
70051;SHT30;57391;51.306;22.680;2023-02-17T00:13:51;3.25;78.19
70051;SHT30;57391;51.306;22.680;2023-02-17T00:16:19;3.26;78.11
70051;SHT30;57391;51.306;22.680;2023-02-17T00:18:52;3.26;78.09
70051;SHT30;57391;51.306;22.680;2023-02-17T00:21:27;3.26;78.16
70051;SHT30;57391;51.306;22.680;2023-02-17T00:23:58;3.27;78.19
70051;SHT30;57391;51.306;22.680;2023-02-17T00:26:26;3.26;78.28
70051;SHT30;57391;51.306;22.680;2023-02-17T00:28:53;3.26;78.30
70051;SHT30;57391;51.306;22.680;2023-02-17T00:31:21;3.28;78.34
70051;SHT30;57391;51.306;22.680;2023-02-17T00:33:49;3.29;78.37
70051;SHT30;57391;51.306;22.680;2023-02-17T00:36:21;3.30;78.32
70051;SHT30;57391;51.306;22.680;2023-02-17T00:38:49;3.31;78.26
70051;SHT30;57391;51.306;22.680;2023-02-17T00:41:16;3.31;78.23
70051;SHT30;57391;51.306;22.680;2023-02-17T00:43:44;3.32;78.26
70051;SHT30;57391;51.306;22.680;2023-02-17T00:46:12;3.32;78.30
70051;SHT30;57391;51.306;22.680;2023-02-17T00:48:40;3.32;78.21
70051;SHT30;57391;51.306;22.680;2023-02-17T00:51:08;3.30;78.13
70051;SHT30;57391;51.306;22.680;2023-02-17T00:53:36;3.30;78.19
70051;SHT30;57391;51.306;22.680;2023-02-17T00:56:04;3.30;78.13
70051;SHT30;57391;51.306;22.680;2023-02-17T00:58:32;3.30;78.14
70051;SHT30;57391;51.306;22.680;2023-02-17T01:01:00;3.29;78.10
70051;SHT30;57391;51.306;22.680;2023-02-17T01:03:28;3.29;78.13
70051;SHT30;57391;51.306;22.680;2023-02-17T01:05:56;3.28;78.18
70051;SHT30;57391;51.306;22.680;2023-02-17T01:08:24;3.26;78.19
70051;SHT30;57391;51.306;22.680;2023-02-17T01:10:51;3.25;78.20
70051;SHT30;57391;51.306;22.680;2023-02-17T01:13:19;3.24;78.18
70051;SHT30;57391;51.306;22.680;2023-02-17T01:15:49;3.24;78.12
70051;SHT30;57391;51.306;22.680;2023-02-17T01:18:20;3.21;78.25
70051;SHT30;57391;51.306;22.680;2023-02-17T01:20:50;3.19;78.23
70051;SHT30;57391;51.306;22.680;2023-02-17T01:23:18;3.18;78.25
70051;SHT30;57391;51.306;22.680;2023-02-17T01:25:46;3.15;78.21
70051;SHT30;57391;51.306;22.680;2023-02-17T01:28:17;3.14;78.36
70051;SHT30;57391;51.306;22.680;2023-02-17T01:30:47;3.12;78.43
70051;SHT30;57391;51.306;22.680;2023-02-17T01:33:14;3.11;78.53
70051;SHT30;57391;51.306;22.680;2023-02-17T01:35:42;3.11;78.66
70051;SHT30;57391;51.306;22.680;2023-02-17T01:38:08;3.10;78.67
70051;SHT30;57391;51.306;22.680;2023-02-17T01:40:36;3.10;78.64
70051;SHT30;57391;51.306;22.680;2023-02-17T01:43:02;3.10;78.68
70051;SHT30;57391;51.306;22.680;2023-02-17T01:45:31;3.12;78.66
70051;SHT30;57391;51.306;22.680;2023-02-17T01:48:13;3.12;78.61
70051;SHT30;57391;51.306;22.680;2023-02-17T01:50:47;3.11;78.77
70051;SHT30;57391;51.306;22.680;2023-02-17T01:53:21;3.12;78.81
70051;SHT30;57391;51.306;22.680;2023-02-17T01:55:55;3.12;78.88
70051;SHT30;57391;51.306;22.680;2023-02-17T01:58:22;3.12;78.91
70051;SHT30;57391;51.306;22.680;2023-02-17T02:00:53;3.13;78.91
70051;SHT30;57391;51.306;22.680;2023-02-17T02:03:25;3.12;78.96
70051;SHT30;57391;51.306;22.680;2023-02-17T02:05:58;3.13;78.94
70051;SHT30;57391;51.306;22.680;2023-02-17T02:08:36;3.11;78.94
70051;SHT30;57391;51.306;22.680;2023-02-17T02:11:15;3.10;78.98
70051;SHT30;57391;51.306;22.680;2023-02-17T02:13:42;3.09;79.03
70051;SHT30;57391;51.306;22.680;2023-02-17T02:16:16;3.08;79.14
70051;SHT30;57391;51.306;22.680;2023-02-17T02:18:59;3.09;79.22
70051;SHT30;57391;51.306;22.680;2023-02-17T02:27:49;3.11;79.39
70051;SHT30;57391;51.306;22.680;2023-02-17T02:33:58;3.13;79.51
70051;SHT30;57391;51.306;22.680;2023-02-17T02:39:24;3.17;79.53
70051;SHT30;57391;51.306;22.680;2023-02-17T02:42:01;3.19;79.50
70051;SHT30;57391;51.306;22.680;2023-02-17T02:44:33;3.20;79.50
70051;SHT30;57391;51.306;22.680;2023-02-17T02:47:41;3.22;79.43
70051;SHT30;57391;51.306;22.680;2023-02-17T02:49:56;3.22;79.42
70051;SHT30;57391;51.306;22.680;2023-02-17T02:52:47;3.22;79.40
70051;SHT30;57391;51.306;22.680;2023-02-17T02:55:45;3.23;79.49
70051;SHT30;57391;51.306;22.680;2023-02-17T03:04:27;3.27;79.46
70051;SHT30;57391;51.306;22.680;2023-02-17T03:07:07;3.28;79.46
70051;SHT30;57391;51.306;22.680;2023-02-17T03:09:52;3.30;79.40
70051;SHT30;57391;51.306;22.680;2023-02-17T03:12:22;3.31;79.40
70051;SHT30;57391;51.306;22.680;2023-02-17T03:14:59;3.33;79.36
70051;SHT30;57391;51.306;22.680;2023-02-17T03:17:33;3.33;79.32
70051;SHT30;57391;51.306;22.680;2023-02-17T03:20:00;3.32;79.32
70051;SHT30;57391;51.306;22.680;2023-02-17T03:22:31;3.33;79.34
70051;SHT30;57391;51.306;22.680;2023-02-17T03:25:03;3.33;79.34
70051;SHT30;57391;51.306;22.680;2023-02-17T03:27:31;3.33;79.40
70051;SHT30;57391;51.306;22.680;2023-02-17T03:29:59;3.33;79.40
70051;SHT30;57391;51.306;22.680;2023-02-17T03:32:26;3.33;79.39
70051;SHT30;57391;51.306;22.680;2023-02-17T03:34:53;3.32;79.43
70051;SHT30;57391;51.306;22.680;2023-02-17T03:37:20;3.32;79.50
70051;SHT30;57391;51.306;22.680;2023-02-17T03:39:47;3.33;79.44
70051;SHT30;57391;51.306;22.680;2023-02-17T03:42:14;3.34;79.49
70051;SHT30;57391;51.306;22.680;2023-02-17T03:44:41;3.37;79.44
70051;SHT30;57391;51.306;22.680;2023-02-17T03:47:08;3.40;79.40
70051;SHT30;57391;51.306;22.680;2023-02-17T03:49:34;3.43;79.33
70051;SHT30;57391;51.306;22.680;2023-02-17T03:52:02;3.44;79.30
70051;SHT30;57391;51.306;22.680;2023-02-17T03:54:29;3.48;79.28
70051;SHT30;57391;51.306;22.680;2023-02-17T03:56:56;3.51;79.20
70051;SHT30;57391;51.306;22.680;2023-02-17T03:59:25;3.53;79.16
70051;SHT30;57391;51.306;22.680;2023-02-17T04:01:53;3.56;79.06
70051;SHT30;57391;51.306;22.680;2023-02-17T04:04:19;3.56;78.93
70051;SHT30;57391;51.306;22.680;2023-02-17T04:06:47;3.57;78.91
70051;SHT30;57391;51.306;22.680;2023-02-17T04:09:13;3.58;78.91
70051;SHT30;57391;51.306;22.680;2023-02-17T04:11:41;3.59;78.90
70051;SHT30;57391;51.306;22.680;2023-02-17T04:14:08;3.61;78.89
70051;SHT30;57391;51.306;22.680;2023-02-17T04:16:35;3.62;78.82
70051;SHT30;57391;51.306;22.680;2023-02-17T04:19:07;3.64;78.79
70051;SHT30;57391;51.306;22.680;2023-02-17T04:21:34;3.65;78.72
70051;SHT30;57391;51.306;22.680;2023-02-17T04:24:02;3.67;78.69
70051;SHT30;57391;51.306;22.680;2023-02-17T04:26:30;3.68;78.61
70051;SHT30;57391;51.306;22.680;2023-02-17T04:28:56;3.70;78.58
70051;SHT30;57391;51.306;22.680;2023-02-17T04:31:23;3.71;78.51
70051;SHT30;57391;51.306;22.680;2023-02-17T04:33:53;3.72;78.46
70051;SHT30;57391;51.306;22.680;2023-02-17T04:36:20;3.74;78.39
70051;SHT30;57391;51.306;22.680;2023-02-17T04:38:47;3.76;78.34
70051;SHT30;57391;51.306;22.680;2023-02-17T04:41:14;3.76;78.23
70051;SHT30;57391;51.306;22.680;2023-02-17T04:43:41;3.76;78.19
70051;SHT30;57391;51.306;22.680;2023-02-17T04:46:08;3.76;78.20
70051;SHT30;57391;51.306;22.680;2023-02-17T04:48:37;3.77;78.20
70051;SHT30;57391;51.306;22.680;2023-02-17T04:51:05;3.77;78.17
70051;SHT30;57391;51.306;22.680;2023-02-17T04:53:32;3.79;78.09
70051;SHT30;57391;51.306;22.680;2023-02-17T04:55:59;3.80;78.08
70051;SHT30;57391;51.306;22.680;2023-02-17T04:58:26;3.81;77.98
70051;SHT30;57391;51.306;22.680;2023-02-17T05:00:53;3.81;78.00
70051;SHT30;57391;51.306;22.680;2023-02-17T05:03:20;3.80;78.04
70051;SHT30;57391;51.306;22.680;2023-02-17T05:05:48;3.81;78.02
70051;SHT30;57391;51.306;22.680;2023-02-17T05:08:15;3.81;78.06
70051;SHT30;57391;51.306;22.680;2023-02-17T05:10:42;3.82;78.07
70051;SHT30;57391;51.306;22.680;2023-02-17T05:13:09;3.81;78.02
70051;SHT30;57391;51.306;22.680;2023-02-17T05:15:36;3.81;78.08
70051;SHT30;57391;51.306;22.680;2023-02-17T05:18:03;3.81;78.14
70051;SHT30;57391;51.306;22.680;2023-02-17T05:20:31;3.82;78.14
70051;SHT30;57391;51.306;22.680;2023-02-17T05:22:58;3.83;78.10
70051;SHT30;57391;51.306;22.680;2023-02-17T05:25:25;3.83;78.10
70051;SHT30;57391;51.306;22.680;2023-02-17T05:27:53;3.83;78.10
70051;SHT30;57391;51.306;22.680;2023-02-17T05:30:20;3.83;78.12
70051;SHT30;57391;51.306;22.680;2023-02-17T05:32:47;3.82;78.12
70051;SHT30;57391;51.306;22.680;2023-02-17T05:35:14;3.82;78.17
70051;SHT30;57391;51.306;22.680;2023-02-17T05:37:41;3.82;78.12
70051;SHT30;57391;51.306;22.680;2023-02-17T05:40:08;3.82;78.07
70051;SHT30;57391;51.306;22.680;2023-02-17T05:42:36;3.82;78.08
70051;SHT30;57391;51.306;22.680;2023-02-17T05:45:03;3.82;78.10
70051;SHT30;57391;51.306;22.680;2023-02-17T05:47:30;3.83;78.19
70051;SHT30;57391;51.306;22.680;2023-02-17T05:49:58;3.84;78.18
70051;SHT30;57391;51.306;22.680;2023-02-17T05:52:24;3.84;78.14
70051;SHT30;57391;51.306;22.680;2023-02-17T05:54:51;3.84;78.13
70051;SHT30;57391;51.306;22.680;2023-02-17T05:57:18;3.85;78.18
70051;SHT30;57391;51.306;22.680;2023-02-17T05:59:45;3.84;78.18
70051;SHT30;57391;51.306;22.680;2023-02-17T06:02:12;3.85;78.15
70051;SHT30;57391;51.306;22.680;2023-02-17T06:04:39;3.85;78.11
70051;SHT30;57391;51.306;22.680;2023-02-17T06:07:06;3.84;78.10
70051;SHT30;57391;51.306;22.680;2023-02-17T06:09:33;3.82;78.07
70051;SHT30;57391;51.306;22.680;2023-02-17T06:12:00;3.80;78.10
70051;SHT30;57391;51.306;22.680;2023-02-17T06:14:27;3.79;78.11
70051;SHT30;57391;51.306;22.680;2023-02-17T06:16:55;3.78;78.20
70051;SHT30;57391;51.306;22.680;2023-02-17T06:19:22;3.79;78.18
70051;SHT30;57391;51.306;22.680;2023-02-17T06:21:49;3.78;78.20
70051;SHT30;57391;51.306;22.680;2023-02-17T06:24:16;3.79;78.27
70051;SHT30;57391;51.306;22.680;2023-02-17T06:26:43;3.80;78.28
70051;SHT30;57391;51.306;22.680;2023-02-17T06:29:10;3.82;78.31
70051;SHT30;57391;51.306;22.680;2023-02-17T06:31:37;3.87;78.34
70051;SHT30;57391;51.306;22.680;2023-02-17T06:34:04;3.92;78.23
70051;SHT30;57391;51.306;22.680;2023-02-17T06:36:31;3.97;78.15
70051;SHT30;57391;51.306;22.680;2023-02-17T06:38:58;4.02;78.08
70051;SHT30;57391;51.306;22.680;2023-02-17T06:41:25;4.06;78.05
70051;SHT30;57391;51.306;22.680;2023-02-17T06:43:53;4.08;77.98
70051;SHT30;57391;51.306;22.680;2023-02-17T06:46:21;4.10;77.92
70051;SHT30;57391;51.306;22.680;2023-02-17T06:48:48;4.13;78.00
70051;SHT30;57391;51.306;22.680;2023-02-17T06:51:15;4.16;77.97
70051;SHT30;57391;51.306;22.680;2023-02-17T06:53:42;4.18;77.89
70051;SHT30;57391;51.306;22.680;2023-02-17T06:56:09;4.20;77.82
70051;SHT30;57391;51.306;22.680;2023-02-17T06:58:36;4.24;77.74
70051;SHT30;57391;51.306;22.680;2023-02-17T07:01:04;4.27;77.55
70051;SHT30;57391;51.306;22.680;2023-02-17T07:03:33;4.28;77.47
70051;SHT30;57391;51.306;22.680;2023-02-17T07:06:00;4.29;77.39
70051;SHT30;57391;51.306;22.680;2023-02-17T07:08:28;4.29;77.49
70051;SHT30;57391;51.306;22.680;2023-02-17T07:10:55;4.32;77.51
70051;SHT30;57391;51.306;22.680;2023-02-17T07:13:22;4.36;77.52
70051;SHT30;57391;51.306;22.680;2023-02-17T07:15:49;4.39;77.40
70051;SHT30;57391;51.306;22.680;2023-02-17T07:18:19;4.41;77.32
70051;SHT30;57391;51.306;22.680;2023-02-17T07:20:48;4.46;77.30
70051;SHT30;57391;51.306;22.680;2023-02-17T07:23:16;4.53;77.11
70051;SHT30;57391;51.306;22.680;2023-02-17T07:25:43;4.60;77.05
70051;SHT30;57391;51.306;22.680;2023-02-17T07:28:11;4.71;76.93
70051;SHT30;57391;51.306;22.680;2023-02-17T07:30:38;4.81;76.69
70051;SHT30;57391;51.306;22.680;2023-02-17T07:33:07;4.87;76.59
70051;SHT30;57391;51.306;22.680;2023-02-17T07:35:41;4.94;76.51
70051;SHT30;57391;51.306;22.680;2023-02-17T07:38:12;4.98;76.08
70051;SHT30;57391;51.306;22.680;2023-02-17T07:40:40;4.99;76.02
70051;SHT30;57391;51.306;22.680;2023-02-17T07:43:09;4.99;75.89
70051;SHT30;57391;51.306;22.680;2023-02-17T07:45:36;4.98;75.99
70051;SHT30;57391;51.306;22.680;2023-02-17T07:48:04;4.97;76.05
70051;SHT30;57391;51.306;22.680;2023-02-17T07:50:31;4.96;76.07
70051;SHT30;57391;51.306;22.680;2023-02-17T07:52:59;4.96;76.12
70051;SHT30;57391;51.306;22.680;2023-02-17T07:55:27;4.95;76.07
70051;SHT30;57391;51.306;22.680;2023-02-17T07:57:53;4.93;76.19
70051;SHT30;57391;51.306;22.680;2023-02-17T08:00:25;4.92;76.33
70051;SHT30;57391;51.306;22.680;2023-02-17T08:02:53;4.93;76.30
70051;SHT30;57391;51.306;22.680;2023-02-17T08:05:20;4.94;76.51
70051;SHT30;57391;51.306;22.680;2023-02-17T08:07:47;4.97;76.49
70051;SHT30;57391;51.306;22.680;2023-02-17T08:10:35;4.98;76.36
70051;SHT30;57391;51.306;22.680;2023-02-17T08:13:23;4.96;76.03
70051;SHT30;57391;51.306;22.680;2023-02-17T08:15:53;4.94;75.98
70051;SHT30;57391;51.306;22.680;2023-02-17T08:18:20;4.92;75.97
70051;SHT30;57391;51.306;22.680;2023-02-17T08:20:47;4.92;75.98
70051;SHT30;57391;51.306;22.680;2023-02-17T08:23:15;4.93;76.02
70051;SHT30;57391;51.306;22.680;2023-02-17T08:25:42;4.95;76.10
70051;SHT30;57391;51.306;22.680;2023-02-17T08:28:09;4.97;76.02
70051;SHT30;57391;51.306;22.680;2023-02-17T08:30:38;5.01;75.65
70051;SHT30;57391;51.306;22.680;2023-02-17T08:33:05;5.04;75.78
70051;SHT30;57391;51.306;22.680;2023-02-17T08:35:33;5.10;75.88
70051;SHT30;57391;51.306;22.680;2023-02-17T08:38:00;5.15;75.67
70051;SHT30;57391;51.306;22.680;2023-02-17T08:40:27;5.21;75.44
70051;SHT30;57391;51.306;22.680;2023-02-17T08:42:54;5.25;75.34
70051;SHT30;57391;51.306;22.680;2023-02-17T08:45:21;5.31;75.31
70051;SHT30;57391;51.306;22.680;2023-02-17T08:47:49;5.36;75.13
70051;SHT30;57391;51.306;22.680;2023-02-17T08:50:16;5.41;75.18
70051;SHT30;57391;51.306;22.680;2023-02-17T08:52:45;5.47;75.01
70051;SHT30;57391;51.306;22.680;2023-02-17T08:55:13;5.49;74.66
70051;SHT30;57391;51.306;22.680;2023-02-17T08:57:40;5.50;74.51
70051;SHT30;57391;51.306;22.680;2023-02-17T09:00:08;5.50;74.36
70051;SHT30;57391;51.306;22.680;2023-02-17T09:02:36;5.50;74.06
70051;SHT30;57391;51.306;22.680;2023-02-17T09:05:04;5.52;74.35
70051;SHT30;57391;51.306;22.680;2023-02-17T09:07:31;5.54;74.19
70051;SHT30;57391;51.306;22.680;2023-02-17T09:09:59;5.55;73.97
70051;SHT30;57391;51.306;22.680;2023-02-17T09:12:26;5.57;74.10
70051;SHT30;57391;51.306;22.680;2023-02-17T09:14:53;5.62;74.30
70051;SHT30;57391;51.306;22.680;2023-02-17T09:17:20;5.66;74.17
70051;SHT30;57391;51.306;22.680;2023-02-17T09:19:47;5.76;74.13
70051;SHT30;57391;51.306;22.680;2023-02-17T09:22:14;5.82;73.94
70051;SHT30;57391;51.306;22.680;2023-02-17T09:24:42;5.88;73.83
70051;SHT30;57391;51.306;22.680;2023-02-17T09:27:11;5.94;73.59
70051;SHT30;57391;51.306;22.680;2023-02-17T09:29:39;5.99;73.66
70051;SHT30;57391;51.306;22.680;2023-02-17T09:32:06;6.07;73.56
70051;SHT30;57391;51.306;22.680;2023-02-17T09:34:35;6.14;73.43
70051;SHT30;57391;51.306;22.680;2023-02-17T09:37:09;6.22;73.33
70051;SHT30;57391;51.306;22.680;2023-02-17T09:39:38;6.28;73.03
70051;SHT30;57391;51.306;22.680;2023-02-17T09:42:05;6.35;72.85
70051;SHT30;57391;51.306;22.680;2023-02-17T09:44:37;6.42;72.72
70051;SHT30;57391;51.306;22.680;2023-02-17T09:47:10;6.48;72.34
70051;SHT30;57391;51.306;22.680;2023-02-17T09:49:56;6.54;72.35
70051;SHT30;57391;51.306;22.680;2023-02-17T09:53:00;6.62;71.68
70051;SHT30;57391;51.306;22.680;2023-02-17T09:55:40;6.66;71.30
70051;SHT30;57391;51.306;22.680;2023-02-17T09:58:17;6.69;70.92
70051;SHT30;57391;51.306;22.680;2023-02-17T10:01:00;6.72;70.89
70051;SHT30;57391;51.306;22.680;2023-02-17T10:03:36;6.76;70.93
70051;SHT30;57391;51.306;22.680;2023-02-17T10:06:25;6.78;70.55
70051;SHT30;57391;51.306;22.680;2023-02-17T10:17:20;6.93;70.60
70051;SHT30;57391;51.306;22.680;2023-02-17T10:20:06;6.97;70.10
70051;SHT30;57391;51.306;22.680;2023-02-17T10:22:45;6.98;69.74
70051;SHT30;57391;51.306;22.680;2023-02-17T10:25:21;7.00;69.88
70051;SHT30;57391;51.306;22.680;2023-02-17T10:28:38;7.01;69.54
70051;SHT30;57391;51.306;22.680;2023-02-17T10:37:17;7.06;69.76
70051;SHT30;57391;51.306;22.680;2023-02-17T10:42:59;7.13;70.01
70051;SHT30;57391;51.306;22.680;2023-02-17T10:45:35;7.15;69.66
70051;SHT30;57391;51.306;22.680;2023-02-17T10:48:13;7.19;69.94
70051;SHT30;57391;51.306;22.680;2023-02-17T10:50:47;7.22;69.82
70051;SHT30;57391;51.306;22.680;2023-02-17T10:53:18;7.25;69.92
70051;SHT30;57391;51.306;22.680;2023-02-17T10:55:57;7.26;69.74
70051;SHT30;57391;51.306;22.680;2023-02-17T11:01:11;7.30;70.05
70051;SHT30;57391;51.306;22.680;2023-02-17T11:03:39;7.33;70.15
70051;SHT30;57391;51.306;22.680;2023-02-17T11:06:19;7.37;69.99
70051;SHT30;57391;51.306;22.680;2023-02-17T11:08:49;7.41;69.94
70051;SHT30;57391;51.306;22.680;2023-02-17T11:11:24;7.43;69.86
70051;SHT30;57391;51.306;22.680;2023-02-17T11:19:20;7.58;70.04
70051;SHT30;57391;51.306;22.680;2023-02-17T11:21:55;7.61;69.79
70051;SHT30;57391;51.306;22.680;2023-02-17T11:24:25;7.62;69.70
70051;SHT30;57391;51.306;22.680;2023-02-17T11:26:58;7.63;69.60
70051;SHT30;57391;51.306;22.680;2023-02-17T11:29:33;7.66;69.77
70051;SHT30;57391;51.306;22.680;2023-02-17T11:34:39;7.72;69.50
70051;SHT30;57391;51.306;22.680;2023-02-17T11:39:40;7.76;69.21
70051;SHT30;57391;51.306;22.680;2023-02-17T11:44:55;7.80;69.61
70051;SHT30;57391;51.306;22.680;2023-02-17T12:04:23;7.90;69.68
70051;SHT30;57391;51.306;22.680;2023-02-17T12:09:43;7.99;69.84
70051;SHT30;57391;51.306;22.680;2023-02-17T12:18:48;8.13;69.71
70051;SHT30;57391;51.306;22.680;2023-02-17T12:34:13;8.21;70.45
70051;SHT30;57391;51.306;22.680;2023-02-17T12:37:02;8.21;70.80
70051;SHT30;57391;51.306;22.680;2023-02-17T12:39:58;8.24;71.18
70051;SHT30;57391;51.306;22.680;2023-02-17T12:42:52;8.30;71.00
70051;SHT30;57391;51.306;22.680;2023-02-17T12:45:36;8.34;70.99
70051;SHT30;57391;51.306;22.680;2023-02-17T12:51:22;8.38;71.16
70051;SHT30;57391;51.306;22.680;2023-02-17T12:54:05;8.37;71.36
70051;SHT30;57391;51.306;22.680;2023-02-17T12:56:48;8.36;71.76
70051;SHT30;57391;51.306;22.680;2023-02-17T12:59:49;8.32;72.01
70051;SHT30;57391;51.306;22.680;2023-02-17T13:02:23;8.32;72.36
70051;SHT30;57391;51.306;22.680;2023-02-17T13:04:52;8.33;72.31
70051;SHT30;57391;51.306;22.680;2023-02-17T13:09:53;8.34;72.50
70051;SHT30;57391;51.306;22.680;2023-02-17T13:20:35;8.27;73.08
70051;SHT30;57391;51.306;22.680;2023-02-17T13:23:12;8.26;73.24
70051;SHT30;57391;51.306;22.680;2023-02-17T13:26:13;8.24;73.41
70051;SHT30;57391;51.306;22.680;2023-02-17T13:28:52;8.22;73.34
70051;SHT30;57391;51.306;22.680;2023-02-17T13:31:58;8.15;73.64
70051;SHT30;57391;51.306;22.680;2023-02-17T13:34:32;8.15;73.85
70051;SHT30;57391;51.306;22.680;2023-02-17T13:37:14;8.15;74.00
70051;SHT30;57391;51.306;22.680;2023-02-17T13:39:45;8.12;74.00
70051;SHT30;57391;51.306;22.680;2023-02-17T13:45:19;8.02;74.14
70051;SHT30;57391;51.306;22.680;2023-02-17T13:48:11;8.00;74.29
70051;SHT30;57391;51.306;22.680;2023-02-17T13:50:47;7.96;74.36
70051;SHT30;57391;51.306;22.680;2023-02-17T13:53:19;7.94;74.44
70051;SHT30;57391;51.306;22.680;2023-02-17T13:56:48;7.89;74.64
70051;SHT30;57391;51.306;22.680;2023-02-17T13:58:51;7.86;74.88
70051;SHT30;57391;51.306;22.680;2023-02-17T14:01:25;7.85;75.02
70051;SHT30;57391;51.306;22.680;2023-02-17T14:03:54;7.84;75.25
70051;SHT30;57391;51.306;22.680;2023-02-17T14:06:30;7.83;75.44
70051;SHT30;57391;51.306;22.680;2023-02-17T14:09:17;7.82;75.72
70051;SHT30;57391;51.306;22.680;2023-02-17T14:11:56;7.80;75.87
70051;SHT30;57391;51.306;22.680;2023-02-17T14:14:31;7.79;76.04
70051;SHT30;57391;51.306;22.680;2023-02-17T14:17:03;7.79;76.20
70051;SHT30;57391;51.306;22.680;2023-02-17T14:19:44;7.78;76.28
70051;SHT30;57391;51.306;22.680;2023-02-17T14:24:57;7.78;76.54
70051;SHT30;57391;51.306;22.680;2023-02-17T14:27:43;7.78;76.72
70051;SHT30;57391;51.306;22.680;2023-02-17T14:30:14;7.79;76.86
70051;SHT30;57391;51.306;22.680;2023-02-17T14:33:15;7.78;76.95
70051;SHT30;57391;51.306;22.680;2023-02-17T14:35:58;7.77;77.19
70051;SHT30;57391;51.306;22.680;2023-02-17T14:38:31;7.79;77.30
70051;SHT30;57391;51.306;22.680;2023-02-17T14:41:03;7.79;77.45
70051;SHT30;57391;51.306;22.680;2023-02-17T14:43:31;7.79;77.59
70051;SHT30;57391;51.306;22.680;2023-02-17T14:45:58;7.78;77.86
70051;SHT30;57391;51.306;22.680;2023-02-17T14:48:26;7.77;78.04
70051;SHT30;57391;51.306;22.680;2023-02-17T14:50:57;7.75;78.29
70051;SHT30;57391;51.306;22.680;2023-02-17T14:53:31;7.73;78.54
70051;SHT30;57391;51.306;22.680;2023-02-17T14:56:18;7.69;78.83
70051;SHT30;57391;51.306;22.680;2023-02-17T14:58:50;7.64;79.18
70051;SHT30;57391;51.306;22.680;2023-02-17T15:01:21;7.61;79.58
70051;SHT30;57391;51.306;22.680;2023-02-17T15:03:50;7.59;79.84
70051;SHT30;57391;51.306;22.680;2023-02-17T15:06:19;7.55;80.27
70051;SHT30;57391;51.306;22.680;2023-02-17T15:08:51;7.49;80.61
70051;SHT30;57391;51.306;22.680;2023-02-17T15:11:26;7.47;80.83
70051;SHT30;57391;51.306;22.680;2023-02-17T15:13:55;7.42;81.01
70051;SHT30;57391;51.306;22.680;2023-02-17T15:16:22;7.40;81.16
70051;SHT30;57391;51.306;22.680;2023-02-17T15:18:49;7.38;81.34
70051;SHT30;57391;51.306;22.680;2023-02-17T15:21:32;7.36;81.48
70051;SHT30;57391;51.306;22.680;2023-02-17T15:24:02;7.34;81.67
70051;SHT30;57391;51.306;22.680;2023-02-17T15:26:41;7.32;81.84
70051;SHT30;57391;51.306;22.680;2023-02-17T15:29:19;7.30;82.05
70051;SHT30;57391;51.306;22.680;2023-02-17T15:31:50;7.29;82.29
70051;SHT30;57391;51.306;22.680;2023-02-17T15:34:21;7.26;82.42
70051;SHT30;57391;51.306;22.680;2023-02-17T15:36:58;7.25;82.70
70051;SHT30;57391;51.306;22.680;2023-02-17T15:39:27;7.24;82.88
70051;SHT30;57391;51.306;22.680;2023-02-17T15:41:55;7.21;83.06
70051;SHT30;57391;51.306;22.680;2023-02-17T15:44:43;7.19;83.33
70051;SHT30;57391;51.306;22.680;2023-02-17T15:47:15;7.18;83.47
70051;SHT30;57391;51.306;22.680;2023-02-17T15:49:46;7.16;83.67
70051;SHT30;57391;51.306;22.680;2023-02-17T15:52:13;7.16;83.71
70051;SHT30;57391;51.306;22.680;2023-02-17T15:54:41;7.14;83.85
70051;SHT30;57391;51.306;22.680;2023-02-17T15:57:15;7.13;84.00
70051;SHT30;57391;51.306;22.680;2023-02-17T15:59:48;7.11;84.13
70051;SHT30;57391;51.306;22.680;2023-02-17T16:02:17;7.10;84.23
70051;SHT30;57391;51.306;22.680;2023-02-17T16:04:49;7.09;84.36
70051;SHT30;57391;51.306;22.680;2023-02-17T16:07:15;7.09;84.35
70051;SHT30;57391;51.306;22.680;2023-02-17T16:09:43;7.10;84.37
70051;SHT30;57391;51.306;22.680;2023-02-17T16:12:19;7.10;84.34
70051;SHT30;57391;51.306;22.680;2023-02-17T16:14:52;7.11;84.32
70051;SHT30;57391;51.306;22.680;2023-02-17T16:17:20;7.12;84.22
70051;SHT30;57391;51.306;22.680;2023-02-17T16:19:48;7.13;84.22
70051;SHT30;57391;51.306;22.680;2023-02-17T16:22:15;7.15;84.18
70051;SHT30;57391;51.306;22.680;2023-02-17T16:24:43;7.16;84.13
70051;SHT30;57391;51.306;22.680;2023-02-17T16:27:13;7.17;84.10
70051;SHT30;57391;51.306;22.680;2023-02-17T16:29:42;7.18;84.05
70051;SHT30;57391;51.306;22.680;2023-02-17T16:32:09;7.19;83.97
70051;SHT30;57391;51.306;22.680;2023-02-17T16:34:38;7.21;83.91
70051;SHT30;57391;51.306;22.680;2023-02-17T16:37:14;7.22;83.82
70051;SHT30;57391;51.306;22.680;2023-02-17T16:39:43;7.24;83.76
70051;SHT30;57391;51.306;22.680;2023-02-17T16:42:11;7.26;83.64
70051;SHT30;57391;51.306;22.680;2023-02-17T16:44:40;7.28;83.58
70051;SHT30;57391;51.306;22.680;2023-02-17T16:47:15;7.29;83.54
70051;SHT30;57391;51.306;22.680;2023-02-17T16:49:47;7.31;83.50
70051;SHT30;57391;51.306;22.680;2023-02-17T16:52:20;7.32;83.47
70051;SHT30;57391;51.306;22.680;2023-02-17T16:54:53;7.33;83.46
70051;SHT30;57391;51.306;22.680;2023-02-17T16:57:20;7.34;83.53
70051;SHT30;57391;51.306;22.680;2023-02-17T16:59:48;7.35;83.62
70051;SHT30;57391;51.306;22.680;2023-02-17T17:02:15;7.34;83.74
70051;SHT30;57391;51.306;22.680;2023-02-17T17:04:42;7.35;83.81
70051;SHT30;57391;51.306;22.680;2023-02-17T17:07:11;7.34;83.91
70051;SHT30;57391;51.306;22.680;2023-02-17T17:09:41;7.33;84.08
70051;SHT30;57391;51.306;22.680;2023-02-17T17:12:09;7.33;84.21
70051;SHT30;57391;51.306;22.680;2023-02-17T17:14:36;7.33;84.20
70051;SHT30;57391;51.306;22.680;2023-02-17T17:17:04;7.32;84.31
70051;SHT30;57391;51.306;22.680;2023-02-17T17:19:31;7.31;84.42
70051;SHT30;57391;51.306;22.680;2023-02-17T17:21:58;7.31;84.50
70051;SHT30;57391;51.306;22.680;2023-02-17T17:24:25;7.31;84.60
70051;SHT30;57391;51.306;22.680;2023-02-17T17:26:52;7.32;84.67
70051;SHT30;57391;51.306;22.680;2023-02-17T17:29:21;7.32;84.75
70051;SHT30;57391;51.306;22.680;2023-02-17T17:31:48;7.32;84.84
70051;SHT30;57391;51.306;22.680;2023-02-17T17:34:15;7.31;84.90
70051;SHT30;57391;51.306;22.680;2023-02-17T17:36:44;7.31;85.03
70051;SHT30;57391;51.306;22.680;2023-02-17T17:39:17;7.30;85.16
70051;SHT30;57391;51.306;22.680;2023-02-17T17:41:48;7.29;85.25
70051;SHT30;57391;51.306;22.680;2023-02-17T17:44:16;7.28;85.32
70051;SHT30;57391;51.306;22.680;2023-02-17T17:46:44;7.30;85.32